sensor_id;sensor_type;location;lat;lon;timestamp;P1;durP1;ratioP1;P2;durP2;ratioP2
6143;SDS011;3103;49.492;8.474;2022-08-19T00:02:01;22.58;;;19.08;;
6143;SDS011;3103;49.492;8.474;2022-08-19T00:04:32;23.70;;;17.70;;
6143;SDS011;3103;49.492;8.474;2022-08-19T00:07:04;18.77;;;14.38;;
6143;SDS011;3103;49.492;8.474;2022-08-19T00:09:32;21.52;;;15.68;;
6143;SDS011;3103;49.492;8.474;2022-08-19T00:11:59;16.40;;;13.70;;
6143;SDS011;3103;49.492;8.474;2022-08-19T00:14:27;13.13;;;11.52;;
6143;SDS011;3103;49.492;8.474;2022-08-19T00:16:57;15.32;;;12.43;;
6143;SDS011;3103;49.492;8.474;2022-08-19T00:19:24;15.20;;;12.95;;
6143;SDS011;3103;49.492;8.474;2022-08-19T00:21:51;14.57;;;12.45;;
6143;SDS011;3103;49.492;8.474;2022-08-19T00:24:18;16.77;;;12.20;;
6143;SDS011;3103;49.492;8.474;2022-08-19T00:26:46;14.93;;;12.13;;
6143;SDS011;3103;49.492;8.474;2022-08-19T00:29:14;13.52;;;11.68;;
6143;SDS011;3103;49.492;8.474;2022-08-19T00:31:43;12.73;;;10.47;;
6143;SDS011;3103;49.492;8.474;2022-08-19T00:34:11;13.52;;;10.40;;
6143;SDS011;3103;49.492;8.474;2022-08-19T00:36:38;11.48;;;10.18;;
6143;SDS011;3103;49.492;8.474;2022-08-19T00:39:06;12.13;;;9.75;;
6143;SDS011;3103;49.492;8.474;2022-08-19T00:41:33;17.10;;;10.80;;
6143;SDS011;3103;49.492;8.474;2022-08-19T00:44:09;11.57;;;9.75;;
6143;SDS011;3103;49.492;8.474;2022-08-19T00:46:37;14.40;;;9.70;;
6143;SDS011;3103;49.492;8.474;2022-08-19T00:55:01;13.93;;;10.48;;
6143;SDS011;3103;49.492;8.474;2022-08-19T00:57:32;11.35;;;10.05;;
6143;SDS011;3103;49.492;8.474;2022-08-19T01:00:13;13.45;;;10.20;;
6143;SDS011;3103;49.492;8.474;2022-08-19T01:02:43;14.10;;;11.85;;
6143;SDS011;3103;49.492;8.474;2022-08-19T01:05:11;11.50;;;10.27;;
6143;SDS011;3103;49.492;8.474;2022-08-19T01:07:41;12.07;;;10.82;;
6143;SDS011;3103;49.492;8.474;2022-08-19T01:10:11;11.60;;;10.07;;
6143;SDS011;3103;49.492;8.474;2022-08-19T01:12:40;13.60;;;10.95;;
6143;SDS011;3103;49.492;8.474;2022-08-19T01:15:08;12.43;;;10.05;;
6143;SDS011;3103;49.492;8.474;2022-08-19T01:17:38;12.45;;;10.65;;
6143;SDS011;3103;49.492;8.474;2022-08-19T01:20:09;12.80;;;11.40;;
6143;SDS011;3103;49.492;8.474;2022-08-19T01:22:43;15.13;;;11.27;;
6143;SDS011;3103;49.492;8.474;2022-08-19T01:25:14;20.67;;;11.88;;
6143;SDS011;3103;49.492;8.474;2022-08-19T01:27:43;12.10;;;10.77;;
6143;SDS011;3103;49.492;8.474;2022-08-19T01:30:26;14.50;;;11.57;;
6143;SDS011;3103;49.492;8.474;2022-08-19T01:32:56;15.85;;;12.00;;
6143;SDS011;3103;49.492;8.474;2022-08-19T01:35:24;13.98;;;11.75;;
6143;SDS011;3103;49.492;8.474;2022-08-19T01:37:55;14.70;;;11.70;;
6143;SDS011;3103;49.492;8.474;2022-08-19T01:40:27;13.82;;;11.10;;
6143;SDS011;3103;49.492;8.474;2022-08-19T01:42:57;15.52;;;11.75;;
6143;SDS011;3103;49.492;8.474;2022-08-19T01:45:24;16.48;;;12.07;;
6143;SDS011;3103;49.492;8.474;2022-08-19T01:47:53;15.02;;;12.57;;
6143;SDS011;3103;49.492;8.474;2022-08-19T01:50:28;13.25;;;11.75;;
6143;SDS011;3103;49.492;8.474;2022-08-19T01:52:57;14.30;;;12.25;;
6143;SDS011;3103;49.492;8.474;2022-08-19T01:55:31;17.70;;;11.68;;
6143;SDS011;3103;49.492;8.474;2022-08-19T01:58:00;14.02;;;12.13;;
6143;SDS011;3103;49.492;8.474;2022-08-19T02:00:30;17.70;;;12.43;;
6143;SDS011;3103;49.492;8.474;2022-08-19T02:02:58;14.20;;;11.88;;
6143;SDS011;3103;49.492;8.474;2022-08-19T02:05:27;14.98;;;11.90;;
6143;SDS011;3103;49.492;8.474;2022-08-19T02:07:56;14.18;;;12.18;;
6143;SDS011;3103;49.492;8.474;2022-08-19T02:10:23;14.88;;;12.60;;
6143;SDS011;3103;49.492;8.474;2022-08-19T02:12:50;13.88;;;12.07;;
6143;SDS011;3103;49.492;8.474;2022-08-19T02:15:18;16.17;;;12.13;;
6143;SDS011;3103;49.492;8.474;2022-08-19T02:17:46;13.05;;;11.57;;
6143;SDS011;3103;49.492;8.474;2022-08-19T02:20:14;14.95;;;12.52;;
6143;SDS011;3103;49.492;8.474;2022-08-19T02:22:41;14.45;;;11.68;;
6143;SDS011;3103;49.492;8.474;2022-08-19T02:25:12;17.98;;;13.13;;
6143;SDS011;3103;49.492;8.474;2022-08-19T02:27:40;15.55;;;11.65;;
6143;SDS011;3103;49.492;8.474;2022-08-19T02:30:10;14.18;;;11.90;;
6143;SDS011;3103;49.492;8.474;2022-08-19T02:32:40;14.90;;;12.65;;
6143;SDS011;3103;49.492;8.474;2022-08-19T02:35:19;14.98;;;12.13;;
6143;SDS011;3103;49.492;8.474;2022-08-19T02:37:46;14.60;;;12.10;;
6143;SDS011;3103;49.492;8.474;2022-08-19T02:40:32;17.55;;;11.25;;
6143;SDS011;3103;49.492;8.474;2022-08-19T02:43:02;14.48;;;12.50;;
6143;SDS011;3103;49.492;8.474;2022-08-19T02:45:32;12.85;;;11.55;;
6143;SDS011;3103;49.492;8.474;2022-08-19T02:48:00;17.33;;;12.90;;
6143;SDS011;3103;49.492;8.474;2022-08-19T02:50:38;13.88;;;11.75;;
6143;SDS011;3103;49.492;8.474;2022-08-19T02:53:18;13.90;;;11.75;;
6143;SDS011;3103;49.492;8.474;2022-08-19T02:55:46;18.77;;;11.95;;
6143;SDS011;3103;49.492;8.474;2022-08-19T02:58:13;14.43;;;12.13;;
6143;SDS011;3103;49.492;8.474;2022-08-19T03:00:59;13.90;;;12.07;;
6143;SDS011;3103;49.492;8.474;2022-08-19T03:03:26;15.10;;;12.15;;
6143;SDS011;3103;49.492;8.474;2022-08-19T03:06:03;18.05;;;13.02;;
6143;SDS011;3103;49.492;8.474;2022-08-19T03:08:39;15.02;;;12.18;;
6143;SDS011;3103;49.492;8.474;2022-08-19T03:13:46;15.25;;;12.80;;
6143;SDS011;3103;49.492;8.474;2022-08-19T03:16:15;16.67;;;13.25;;
6143;SDS011;3103;49.492;8.474;2022-08-19T03:18:42;16.95;;;13.05;;
6143;SDS011;3103;49.492;8.474;2022-08-19T03:21:09;14.88;;;12.77;;
6143;SDS011;3103;49.492;8.474;2022-08-19T03:23:42;16.23;;;12.23;;
6143;SDS011;3103;49.492;8.474;2022-08-19T03:26:09;15.60;;;13.10;;
6143;SDS011;3103;49.492;8.474;2022-08-19T03:28:42;15.77;;;12.45;;
6143;SDS011;3103;49.492;8.474;2022-08-19T03:31:23;17.08;;;12.60;;
6143;SDS011;3103;49.492;8.474;2022-08-19T03:34:12;15.07;;;12.25;;
6143;SDS011;3103;49.492;8.474;2022-08-19T03:36:40;16.35;;;11.85;;
6143;SDS011;3103;49.492;8.474;2022-08-19T03:39:07;17.40;;;12.20;;
6143;SDS011;3103;49.492;8.474;2022-08-19T03:41:37;13.63;;;11.38;;
6143;SDS011;3103;49.492;8.474;2022-08-19T03:44:15;14.68;;;12.18;;
6143;SDS011;3103;49.492;8.474;2022-08-19T03:46:48;15.02;;;12.45;;
6143;SDS011;3103;49.492;8.474;2022-08-19T03:49:18;12.82;;;11.43;;
6143;SDS011;3103;49.492;8.474;2022-08-19T03:51:47;14.25;;;11.88;;
6143;SDS011;3103;49.492;8.474;2022-08-19T03:54:17;12.98;;;11.50;;
6143;SDS011;3103;49.492;8.474;2022-08-19T03:56:46;13.30;;;11.90;;
6143;SDS011;3103;49.492;8.474;2022-08-19T03:59:18;15.70;;;11.65;;
6143;SDS011;3103;49.492;8.474;2022-08-19T04:01:49;13.38;;;10.90;;
6143;SDS011;3103;49.492;8.474;2022-08-19T04:04:16;12.93;;;11.45;;
6143;SDS011;3103;49.492;8.474;2022-08-19T04:06:45;12.93;;;10.98;;
6143;SDS011;3103;49.492;8.474;2022-08-19T04:09:13;12.98;;;11.27;;
6143;SDS011;3103;49.492;8.474;2022-08-19T04:11:42;17.50;;;11.13;;
6143;SDS011;3103;49.492;8.474;2022-08-19T04:14:16;13.55;;;11.68;;
6143;SDS011;3103;49.492;8.474;2022-08-19T04:16:45;12.20;;;11.00;;
6143;SDS011;3103;49.492;8.474;2022-08-19T04:19:13;14.48;;;11.18;;
6143;SDS011;3103;49.492;8.474;2022-08-19T04:21:42;12.57;;;10.85;;
6143;SDS011;3103;49.492;8.474;2022-08-19T04:24:11;15.88;;;11.50;;
6143;SDS011;3103;49.492;8.474;2022-08-19T04:26:38;15.35;;;10.48;;
6143;SDS011;3103;49.492;8.474;2022-08-19T04:29:13;12.30;;;10.85;;
6143;SDS011;3103;49.492;8.474;2022-08-19T04:31:42;12.05;;;10.18;;
6143;SDS011;3103;49.492;8.474;2022-08-19T04:34:12;12.48;;;11.18;;
6143;SDS011;3103;49.492;8.474;2022-08-19T04:36:41;17.08;;;11.07;;
6143;SDS011;3103;49.492;8.474;2022-08-19T04:39:12;13.38;;;10.82;;
6143;SDS011;3103;49.492;8.474;2022-08-19T04:41:41;12.40;;;10.63;;
6143;SDS011;3103;49.492;8.474;2022-08-19T04:44:28;13.02;;;10.48;;
6143;SDS011;3103;49.492;8.474;2022-08-19T04:46:58;23.05;;;13.60;;
6143;SDS011;3103;49.492;8.474;2022-08-19T04:49:26;38.55;;;28.95;;
6143;SDS011;3103;49.492;8.474;2022-08-19T04:51:53;51.45;;;34.55;;
6143;SDS011;3103;49.492;8.474;2022-08-19T04:54:22;28.25;;;19.95;;
6143;SDS011;3103;49.492;8.474;2022-08-19T04:57:05;28.58;;;20.38;;
6143;SDS011;3103;49.492;8.474;2022-08-19T04:59:36;35.33;;;26.92;;
6143;SDS011;3103;49.492;8.474;2022-08-19T05:02:04;56.15;;;38.92;;
6143;SDS011;3103;49.492;8.474;2022-08-19T05:04:31;19.83;;;15.85;;
6143;SDS011;3103;49.492;8.474;2022-08-19T05:06:59;31.02;;;25.20;;
6143;SDS011;3103;49.492;8.474;2022-08-19T05:09:28;31.02;;;20.05;;
6143;SDS011;3103;49.492;8.474;2022-08-19T05:12:16;19.33;;;13.43;;
6143;SDS011;3103;49.492;8.474;2022-08-19T05:14:43;15.85;;;10.40;;
6143;SDS011;3103;49.492;8.474;2022-08-19T05:17:11;18.25;;;11.00;;
6143;SDS011;3103;49.492;8.474;2022-08-19T05:19:58;12.35;;;10.48;;
6143;SDS011;3103;49.492;8.474;2022-08-19T05:22:44;14.77;;;10.65;;
6143;SDS011;3103;49.492;8.474;2022-08-19T05:25:14;18.40;;;10.80;;
6143;SDS011;3103;49.492;8.474;2022-08-19T05:27:45;13.82;;;9.48;;
6143;SDS011;3103;49.492;8.474;2022-08-19T05:30:12;26.15;;;10.23;;
6143;SDS011;3103;49.492;8.474;2022-08-19T05:32:39;13.23;;;9.43;;
6143;SDS011;3103;49.492;8.474;2022-08-19T05:35:07;11.80;;;9.80;;
6143;SDS011;3103;49.492;8.474;2022-08-19T05:37:34;12.82;;;9.82;;
6143;SDS011;3103;49.492;8.474;2022-08-19T05:40:01;13.30;;;10.02;;
6143;SDS011;3103;49.492;8.474;2022-08-19T05:42:29;16.27;;;9.35;;
6143;SDS011;3103;49.492;8.474;2022-08-19T05:44:57;11.95;;;9.35;;
6143;SDS011;3103;49.492;8.474;2022-08-19T05:47:24;61.70;;;44.00;;
6143;SDS011;3103;49.492;8.474;2022-08-19T05:49:51;50.65;;;36.85;;
6143;SDS011;3103;49.492;8.474;2022-08-19T05:52:18;41.97;;;30.33;;
6143;SDS011;3103;49.492;8.474;2022-08-19T05:54:51;38.42;;;24.67;;
6143;SDS011;3103;49.492;8.474;2022-08-19T05:57:18;28.25;;;23.13;;
6143;SDS011;3103;49.492;8.474;2022-08-19T05:59:45;49.85;;;40.15;;
6143;SDS011;3103;49.492;8.474;2022-08-19T06:02:18;18.67;;;13.68;;
6143;SDS011;3103;49.492;8.474;2022-08-19T06:04:45;15.63;;;10.45;;
6143;SDS011;3103;49.492;8.474;2022-08-19T06:07:12;12.82;;;9.10;;
6143;SDS011;3103;49.492;8.474;2022-08-19T06:09:39;14.27;;;10.50;;
6143;SDS011;3103;49.492;8.474;2022-08-19T06:12:09;11.57;;;9.88;;
6143;SDS011;3103;49.492;8.474;2022-08-19T06:14:36;11.88;;;10.05;;
6143;SDS011;3103;49.492;8.474;2022-08-19T06:17:07;13.13;;;9.00;;
6143;SDS011;3103;49.492;8.474;2022-08-19T06:19:34;12.98;;;9.60;;
6143;SDS011;3103;49.492;8.474;2022-08-19T06:22:06;11.63;;;9.15;;
6143;SDS011;3103;49.492;8.474;2022-08-19T06:24:34;16.23;;;9.60;;
6143;SDS011;3103;49.492;8.474;2022-08-19T06:27:02;10.38;;;8.43;;
6143;SDS011;3103;49.492;8.474;2022-08-19T06:29:32;10.10;;;8.65;;
6143;SDS011;3103;49.492;8.474;2022-08-19T06:32:00;10.93;;;9.07;;
6143;SDS011;3103;49.492;8.474;2022-08-19T06:34:30;10.75;;;8.82;;
6143;SDS011;3103;49.492;8.474;2022-08-19T06:36:59;11.40;;;8.93;;
6143;SDS011;3103;49.492;8.474;2022-08-19T06:39:31;9.90;;;8.90;;
6143;SDS011;3103;49.492;8.474;2022-08-19T06:42:00;10.20;;;9.00;;
6143;SDS011;3103;49.492;8.474;2022-08-19T06:44:30;9.98;;;8.30;;
6143;SDS011;3103;49.492;8.474;2022-08-19T06:47:08;10.75;;;8.13;;
6143;SDS011;3103;49.492;8.474;2022-08-19T06:49:40;10.30;;;8.52;;
6143;SDS011;3103;49.492;8.474;2022-08-19T06:52:08;10.20;;;8.25;;
6143;SDS011;3103;49.492;8.474;2022-08-19T06:54:40;9.20;;;8.05;;
6143;SDS011;3103;49.492;8.474;2022-08-19T06:57:22;11.13;;;8.00;;
6143;SDS011;3103;49.492;8.474;2022-08-19T06:59:50;10.77;;;8.77;;
6143;SDS011;3103;49.492;8.474;2022-08-19T07:02:17;10.15;;;8.15;;
6143;SDS011;3103;49.492;8.474;2022-08-19T07:04:44;11.40;;;8.23;;
6143;SDS011;3103;49.492;8.474;2022-08-19T07:07:12;16.00;;;7.80;;
6143;SDS011;3103;49.492;8.474;2022-08-19T07:09:46;12.60;;;7.53;;
6143;SDS011;3103;49.492;8.474;2022-08-19T07:12:24;9.98;;;8.20;;
6143;SDS011;3103;49.492;8.474;2022-08-19T07:14:51;12.05;;;7.88;;
6143;SDS011;3103;49.492;8.474;2022-08-19T07:17:20;11.52;;;7.80;;
6143;SDS011;3103;49.492;8.474;2022-08-19T07:19:47;9.93;;;7.72;;
6143;SDS011;3103;49.492;8.474;2022-08-19T07:22:14;9.05;;;7.82;;
6143;SDS011;3103;49.492;8.474;2022-08-19T07:24:42;12.70;;;8.75;;
6143;SDS011;3103;49.492;8.474;2022-08-19T07:27:17;13.35;;;8.07;;
6143;SDS011;3103;49.492;8.474;2022-08-19T07:29:53;12.00;;;8.05;;
6143;SDS011;3103;49.492;8.474;2022-08-19T07:32:25;12.77;;;7.00;;
6143;SDS011;3103;49.492;8.474;2022-08-19T07:34:57;9.40;;;7.88;;
6143;SDS011;3103;49.492;8.474;2022-08-19T07:37:28;8.60;;;7.50;;
6143;SDS011;3103;49.492;8.474;2022-08-19T07:39:59;9.50;;;6.95;;
6143;SDS011;3103;49.492;8.474;2022-08-19T07:42:28;9.73;;;8.35;;
6143;SDS011;3103;49.492;8.474;2022-08-19T07:44:56;9.80;;;7.75;;
6143;SDS011;3103;49.492;8.474;2022-08-19T07:47:24;10.13;;;7.28;;
6143;SDS011;3103;49.492;8.474;2022-08-19T07:50:11;9.52;;;7.28;;
6143;SDS011;3103;49.492;8.474;2022-08-19T07:52:38;11.25;;;7.05;;
6143;SDS011;3103;49.492;8.474;2022-08-19T07:55:07;10.68;;;7.47;;
6143;SDS011;3103;49.492;8.474;2022-08-19T07:57:56;10.32;;;6.70;;
6143;SDS011;3103;49.492;8.474;2022-08-19T08:00:23;9.00;;;7.10;;
6143;SDS011;3103;49.492;8.474;2022-08-19T08:02:50;7.47;;;6.07;;
6143;SDS011;3103;49.492;8.474;2022-08-19T08:05:20;9.13;;;6.03;;
6143;SDS011;3103;49.492;8.474;2022-08-19T08:08:09;9.27;;;6.47;;
6143;SDS011;3103;49.492;8.474;2022-08-19T08:10:59;11.20;;;6.40;;
6143;SDS011;3103;49.492;8.474;2022-08-19T08:13:27;7.43;;;6.65;;
6143;SDS011;3103;49.492;8.474;2022-08-19T08:15:54;7.15;;;6.20;;
6143;SDS011;3103;49.492;8.474;2022-08-19T08:18:23;7.45;;;5.35;;
6143;SDS011;3103;49.492;8.474;2022-08-19T08:20:54;6.50;;;5.32;;
6143;SDS011;3103;49.492;8.474;2022-08-19T08:23:21;7.40;;;6.45;;
6143;SDS011;3103;49.492;8.474;2022-08-19T08:25:48;7.57;;;6.22;;
6143;SDS011;3103;49.492;8.474;2022-08-19T08:28:16;8.02;;;6.20;;
6143;SDS011;3103;49.492;8.474;2022-08-19T08:30:44;7.85;;;6.00;;
6143;SDS011;3103;49.492;8.474;2022-08-19T08:33:18;6.80;;;5.35;;
6143;SDS011;3103;49.492;8.474;2022-08-19T08:36:00;7.50;;;5.60;;
6143;SDS011;3103;49.492;8.474;2022-08-19T08:38:36;7.53;;;5.63;;
6143;SDS011;3103;49.492;8.474;2022-08-19T08:41:09;6.60;;;5.38;;
6143;SDS011;3103;49.492;8.474;2022-08-19T08:43:49;6.03;;;4.82;;
6143;SDS011;3103;49.492;8.474;2022-08-19T08:46:23;6.50;;;4.35;;
6143;SDS011;3103;49.492;8.474;2022-08-19T08:51:47;9.00;;;5.28;;
6143;SDS011;3103;49.492;8.474;2022-08-19T08:54:27;9.73;;;5.63;;
6143;SDS011;3103;49.492;8.474;2022-08-19T08:57:03;7.63;;;5.72;;
6143;SDS011;3103;49.492;8.474;2022-08-19T08:59:35;5.70;;;5.10;;
6143;SDS011;3103;49.492;8.474;2022-08-19T09:02:05;9.43;;;5.63;;
6143;SDS011;3103;49.492;8.474;2022-08-19T09:04:31;7.30;;;5.70;;
6143;SDS011;3103;49.492;8.474;2022-08-19T09:07:12;9.43;;;6.65;;
6143;SDS011;3103;49.492;8.474;2022-08-19T09:10:14;6.38;;;5.57;;
6143;SDS011;3103;49.492;8.474;2022-08-19T09:15:36;6.65;;;4.80;;
6143;SDS011;3103;49.492;8.474;2022-08-19T09:18:06;7.55;;;5.55;;
6143;SDS011;3103;49.492;8.474;2022-08-19T09:20:40;9.57;;;5.70;;
6143;SDS011;3103;49.492;8.474;2022-08-19T09:23:08;10.32;;;5.53;;
6143;SDS011;3103;49.492;8.474;2022-08-19T09:25:37;7.75;;;5.68;;
6143;SDS011;3103;49.492;8.474;2022-08-19T09:28:03;5.70;;;5.03;;
6143;SDS011;3103;49.492;8.474;2022-08-19T09:30:34;8.00;;;6.45;;
6143;SDS011;3103;49.492;8.474;2022-08-19T09:33:06;7.30;;;6.10;;
6143;SDS011;3103;49.492;8.474;2022-08-19T09:35:33;6.63;;;5.90;;
6143;SDS011;3103;49.492;8.474;2022-08-19T09:38:18;7.70;;;5.95;;
6143;SDS011;3103;49.492;8.474;2022-08-19T09:40:45;7.55;;;5.90;;
6143;SDS011;3103;49.492;8.474;2022-08-19T09:43:11;7.75;;;5.90;;
6143;SDS011;3103;49.492;8.474;2022-08-19T09:45:39;9.32;;;5.75;;
6143;SDS011;3103;49.492;8.474;2022-08-19T09:48:06;6.90;;;6.20;;
6143;SDS011;3103;49.492;8.474;2022-08-19T09:50:35;11.20;;;6.40;;
6143;SDS011;3103;49.492;8.474;2022-08-19T09:53:17;10.75;;;6.15;;
6143;SDS011;3103;49.492;8.474;2022-08-19T09:55:45;6.50;;;5.40;;
6143;SDS011;3103;49.492;8.474;2022-08-19T09:58:11;6.38;;;5.60;;
6143;SDS011;3103;49.492;8.474;2022-08-19T10:00:38;8.10;;;5.15;;
6143;SDS011;3103;49.492;8.474;2022-08-19T10:03:05;8.45;;;5.85;;
6143;SDS011;3103;49.492;8.474;2022-08-19T10:05:32;9.80;;;5.55;;
6143;SDS011;3103;49.492;8.474;2022-08-19T10:08:20;8.57;;;6.03;;
6143;SDS011;3103;49.492;8.474;2022-08-19T10:10:52;8.45;;;6.07;;
6143;SDS011;3103;49.492;8.474;2022-08-19T10:13:23;9.65;;;5.50;;
6143;SDS011;3103;49.492;8.474;2022-08-19T10:15:53;5.97;;;4.90;;
6143;SDS011;3103;49.492;8.474;2022-08-19T10:18:22;6.60;;;5.57;;
6143;SDS011;3103;49.492;8.474;2022-08-19T10:20:51;7.63;;;5.45;;
6143;SDS011;3103;49.492;8.474;2022-08-19T10:23:20;7.55;;;5.90;;
6143;SDS011;3103;49.492;8.474;2022-08-19T10:25:48;7.50;;;5.30;;
6143;SDS011;3103;49.492;8.474;2022-08-19T10:28:15;5.82;;;5.22;;
6143;SDS011;3103;49.492;8.474;2022-08-19T10:30:45;6.93;;;5.30;;
6143;SDS011;3103;49.492;8.474;2022-08-19T10:33:13;5.97;;;5.22;;
6143;SDS011;3103;49.492;8.474;2022-08-19T10:36:02;6.82;;;5.95;;
6143;SDS011;3103;49.492;8.474;2022-08-19T10:38:31;7.63;;;5.70;;
6143;SDS011;3103;49.492;8.474;2022-08-19T10:41:05;7.28;;;6.10;;
6143;SDS011;3103;49.492;8.474;2022-08-19T10:43:36;7.85;;;6.10;;
6143;SDS011;3103;49.492;8.474;2022-08-19T10:46:05;7.20;;;6.20;;
6143;SDS011;3103;49.492;8.474;2022-08-19T10:48:42;7.45;;;6.03;;
6143;SDS011;3103;49.492;8.474;2022-08-19T10:51:10;7.15;;;5.80;;
6143;SDS011;3103;49.492;8.474;2022-08-19T10:53:57;6.80;;;5.75;;
6143;SDS011;3103;49.492;8.474;2022-08-19T10:56:25;6.82;;;5.88;;
6143;SDS011;3103;49.492;8.474;2022-08-19T10:59:11;10.30;;;6.53;;
6143;SDS011;3103;49.492;8.474;2022-08-19T11:01:41;6.85;;;5.78;;
6143;SDS011;3103;49.492;8.474;2022-08-19T11:04:10;8.63;;;5.75;;
6143;SDS011;3103;49.492;8.474;2022-08-19T11:06:37;7.85;;;6.47;;
6143;SDS011;3103;49.492;8.474;2022-08-19T11:09:04;7.45;;;6.35;;
6143;SDS011;3103;49.492;8.474;2022-08-19T11:11:32;7.10;;;6.40;;
6143;SDS011;3103;49.492;8.474;2022-08-19T11:14:06;17.27;;;6.10;;
6143;SDS011;3103;49.492;8.474;2022-08-19T11:16:38;6.43;;;5.82;;
6143;SDS011;3103;49.492;8.474;2022-08-19T11:19:05;8.85;;;6.32;;
6143;SDS011;3103;49.492;8.474;2022-08-19T11:21:38;7.10;;;5.88;;
6143;SDS011;3103;49.492;8.474;2022-08-19T11:24:09;8.90;;;5.70;;
6143;SDS011;3103;49.492;8.474;2022-08-19T11:26:38;10.75;;;5.25;;
6143;SDS011;3103;49.492;8.474;2022-08-19T11:29:07;5.57;;;4.88;;
6143;SDS011;3103;49.492;8.474;2022-08-19T11:31:38;7.53;;;5.28;;
6143;SDS011;3103;49.492;8.474;2022-08-19T11:34:08;5.22;;;4.68;;
6143;SDS011;3103;49.492;8.474;2022-08-19T11:36:37;5.22;;;4.72;;
6143;SDS011;3103;49.492;8.474;2022-08-19T11:39:06;6.22;;;4.70;;
6143;SDS011;3103;49.492;8.474;2022-08-19T11:41:34;6.78;;;4.97;;
6143;SDS011;3103;49.492;8.474;2022-08-19T11:44:07;11.20;;;5.50;;
6143;SDS011;3103;49.492;8.474;2022-08-19T11:46:35;6.25;;;5.25;;
6143;SDS011;3103;49.492;8.474;2022-08-19T11:49:04;11.80;;;5.63;;
6143;SDS011;3103;49.492;8.474;2022-08-19T11:51:39;8.18;;;5.28;;
6143;SDS011;3103;49.492;8.474;2022-08-19T11:54:09;5.63;;;5.13;;
6143;SDS011;3103;49.492;8.474;2022-08-19T11:56:37;5.72;;;5.13;;
6143;SDS011;3103;49.492;8.474;2022-08-19T11:59:07;7.97;;;4.70;;
6143;SDS011;3103;49.492;8.474;2022-08-19T12:01:40;5.63;;;4.88;;
6143;SDS011;3103;49.492;8.474;2022-08-19T12:04:08;4.70;;;4.20;;
6143;SDS011;3103;49.492;8.474;2022-08-19T12:06:37;9.77;;;5.10;;
6143;SDS011;3103;49.492;8.474;2022-08-19T12:09:05;5.90;;;4.70;;
6143;SDS011;3103;49.492;8.474;2022-08-19T12:11:34;4.38;;;3.97;;
6143;SDS011;3103;49.492;8.474;2022-08-19T12:14:03;6.15;;;4.60;;
6143;SDS011;3103;49.492;8.474;2022-08-19T12:16:30;6.72;;;4.78;;
6143;SDS011;3103;49.492;8.474;2022-08-19T12:18:59;5.95;;;4.68;;
6143;SDS011;3103;49.492;8.474;2022-08-19T12:21:30;5.00;;;4.40;;
6143;SDS011;3103;49.492;8.474;2022-08-19T12:23:59;5.30;;;4.30;;
6143;SDS011;3103;49.492;8.474;2022-08-19T12:26:28;5.75;;;4.18;;
6143;SDS011;3103;49.492;8.474;2022-08-19T12:28:55;5.65;;;4.40;;
6143;SDS011;3103;49.492;8.474;2022-08-19T12:31:22;6.95;;;4.28;;
6143;SDS011;3103;49.492;8.474;2022-08-19T12:33:49;4.93;;;4.07;;
6143;SDS011;3103;49.492;8.474;2022-08-19T12:36:16;4.18;;;3.78;;
6143;SDS011;3103;49.492;8.474;2022-08-19T12:38:44;6.80;;;3.97;;
6143;SDS011;3103;49.492;8.474;2022-08-19T12:41:13;4.03;;;3.67;;
6143;SDS011;3103;49.492;8.474;2022-08-19T12:43:41;5.90;;;4.30;;
6143;SDS011;3103;49.492;8.474;2022-08-19T12:46:08;4.35;;;3.95;;
6143;SDS011;3103;49.492;8.474;2022-08-19T12:48:37;10.18;;;3.70;;
6143;SDS011;3103;49.492;8.474;2022-08-19T12:51:09;5.47;;;4.30;;
6143;SDS011;3103;49.492;8.474;2022-08-19T12:53:38;5.18;;;4.05;;
6143;SDS011;3103;49.492;8.474;2022-08-19T12:56:10;5.18;;;4.22;;
6143;SDS011;3103;49.492;8.474;2022-08-19T12:58:38;5.10;;;4.18;;
6143;SDS011;3103;49.492;8.474;2022-08-19T13:01:06;5.03;;;4.32;;
6143;SDS011;3103;49.492;8.474;2022-08-19T13:03:44;4.25;;;3.85;;
6143;SDS011;3103;49.492;8.474;2022-08-19T13:06:12;5.28;;;3.85;;
6143;SDS011;3103;49.492;8.474;2022-08-19T13:08:44;4.07;;;3.67;;
6143;SDS011;3103;49.492;8.474;2022-08-19T13:11:13;5.20;;;3.83;;
6143;SDS011;3103;49.492;8.474;2022-08-19T13:13:44;6.85;;;4.28;;
6143;SDS011;3103;49.492;8.474;2022-08-19T13:16:13;6.78;;;4.20;;
6143;SDS011;3103;49.492;8.474;2022-08-19T13:18:41;4.70;;;4.18;;
6143;SDS011;3103;49.492;8.474;2022-08-19T13:21:10;4.45;;;4.05;;
6143;SDS011;3103;49.492;8.474;2022-08-19T13:23:40;4.72;;;4.32;;
6143;SDS011;3103;49.492;8.474;2022-08-19T13:26:08;6.25;;;4.15;;
6143;SDS011;3103;49.492;8.474;2022-08-19T13:28:37;5.47;;;4.57;;
6143;SDS011;3103;49.492;8.474;2022-08-19T13:31:24;4.82;;;4.30;;
6143;SDS011;3103;49.492;8.474;2022-08-19T13:34:12;4.45;;;3.90;;
6143;SDS011;3103;49.492;8.474;2022-08-19T13:36:39;7.47;;;4.10;;
6143;SDS011;3103;49.492;8.474;2022-08-19T13:39:07;5.03;;;4.10;;
6143;SDS011;3103;49.492;8.474;2022-08-19T13:41:35;5.40;;;4.57;;
6143;SDS011;3103;49.492;8.474;2022-08-19T13:44:03;5.10;;;4.22;;
6143;SDS011;3103;49.492;8.474;2022-08-19T13:46:30;5.68;;;4.40;;
6143;SDS011;3103;49.492;8.474;2022-08-19T13:48:57;4.88;;;4.05;;
6143;SDS011;3103;49.492;8.474;2022-08-19T13:51:24;4.60;;;3.58;;
6143;SDS011;3103;49.492;8.474;2022-08-19T13:53:51;3.70;;;3.38;;
6143;SDS011;3103;49.492;8.474;2022-08-19T13:56:18;5.32;;;3.78;;
6143;SDS011;3103;49.492;8.474;2022-08-19T13:58:51;6.68;;;3.88;;
6143;SDS011;3103;49.492;8.474;2022-08-19T14:01:19;5.80;;;4.13;;
6143;SDS011;3103;49.492;8.474;2022-08-19T14:03:49;4.32;;;3.83;;
6143;SDS011;3103;49.492;8.474;2022-08-19T14:06:17;5.15;;;3.80;;
6143;SDS011;3103;49.492;8.474;2022-08-19T14:08:44;5.97;;;4.00;;
6143;SDS011;3103;49.492;8.474;2022-08-19T14:11:11;7.55;;;3.80;;
6143;SDS011;3103;49.492;8.474;2022-08-19T14:13:38;4.40;;;4.00;;
6143;SDS011;3103;49.492;8.474;2022-08-19T14:16:06;4.50;;;3.50;;
6143;SDS011;3103;49.492;8.474;2022-08-19T14:18:38;3.97;;;3.65;;
6143;SDS011;3103;49.492;8.474;2022-08-19T14:21:05;3.95;;;3.30;;
6143;SDS011;3103;49.492;8.474;2022-08-19T14:23:33;4.70;;;2.92;;
6143;SDS011;3103;49.492;8.474;2022-08-19T14:26:06;6.18;;;3.10;;
6143;SDS011;3103;49.492;8.474;2022-08-19T14:28:38;6.88;;;3.47;;
6143;SDS011;3103;49.492;8.474;2022-08-19T14:31:08;4.13;;;3.72;;
6143;SDS011;3103;49.492;8.474;2022-08-19T14:33:39;4.85;;;3.30;;
6143;SDS011;3103;49.492;8.474;2022-08-19T14:36:06;8.63;;;2.95;;
6143;SDS011;3103;49.492;8.474;2022-08-19T14:38:33;4.18;;;3.10;;
6143;SDS011;3103;49.492;8.474;2022-08-19T14:41:08;8.75;;;3.25;;
6143;SDS011;3103;49.492;8.474;2022-08-19T14:43:38;3.40;;;3.08;;
6143;SDS011;3103;49.492;8.474;2022-08-19T14:46:05;7.50;;;2.80;;
6143;SDS011;3103;49.492;8.474;2022-08-19T14:48:32;3.58;;;2.70;;
6143;SDS011;3103;49.492;8.474;2022-08-19T14:50:59;3.10;;;2.80;;
6143;SDS011;3103;49.492;8.474;2022-08-19T14:53:26;3.00;;;2.70;;
6143;SDS011;3103;49.492;8.474;2022-08-19T14:55:53;3.28;;;2.35;;
6143;SDS011;3103;49.492;8.474;2022-08-19T14:58:20;4.10;;;2.58;;
6143;SDS011;3103;49.492;8.474;2022-08-19T15:00:56;5.18;;;3.15;;
6143;SDS011;3103;49.492;8.474;2022-08-19T15:03:25;4.55;;;3.22;;
6143;SDS011;3103;49.492;8.474;2022-08-19T15:05:52;3.20;;;2.90;;
6143;SDS011;3103;49.492;8.474;2022-08-19T15:08:19;4.47;;;2.80;;
6143;SDS011;3103;49.492;8.474;2022-08-19T15:10:47;4.00;;;3.03;;
6143;SDS011;3103;49.492;8.474;2022-08-19T15:13:15;7.53;;;2.83;;
6143;SDS011;3103;49.492;8.474;2022-08-19T15:15:42;2.78;;;2.58;;
6143;SDS011;3103;49.492;8.474;2022-08-19T15:18:08;5.07;;;3.17;;
6143;SDS011;3103;49.492;8.474;2022-08-19T15:20:35;4.60;;;2.53;;
6143;SDS011;3103;49.492;8.474;2022-08-19T15:23:02;7.50;;;2.63;;
6143;SDS011;3103;49.492;8.474;2022-08-19T15:25:28;5.50;;;3.00;;
6143;SDS011;3103;49.492;8.474;2022-08-19T15:27:55;4.43;;;3.50;;
6143;SDS011;3103;49.492;8.474;2022-08-19T15:30:23;7.38;;;2.90;;
6143;SDS011;3103;49.492;8.474;2022-08-19T15:32:53;3.20;;;2.90;;
6143;SDS011;3103;49.492;8.474;2022-08-19T15:35:21;7.72;;;3.00;;
6143;SDS011;3103;49.492;8.474;2022-08-19T15:37:52;4.43;;;2.78;;